Pagrindinis puslapis
METAR-TAF:

METAR-TAF

Oro uostai :

Briuselio oro uostas

Briuselis, Belgija

platuma: 50-54N, ilguma: 004-32E, Aukštis: 55 m

Dabartinis oras

Ataskaita buvo paskelbta 34 minutes, ne 03:20 UTC
Vėjas 2 kt nuo kintamojo kryptimis
Temperatūra 11°C
Drėgmė 62%
Slėgis 1022 hPa
Matomumas 10 km arba daugiau
nėra debesų žemiau 1500 m ir nėra kamuolinių lietaus debesų

METAR: EBBR 310320Z VRB02KT CAVOK 11/04 Q1022 NOSIG

Laikas: 05:54 (03:54 UTC)

Prognozė

Ataskaita buvo paskelbta 4 valandos ir 34 minutes, ne 23:20 UTC
Prognozė galioja nuo 31 metu 00 UTC su 01 metu 06 UTC
Vėjas 7 kt iš Rytų/Šiaurės Rytų
Matomumas 10 km arba daugiau
nėra debesų žemiau 1500 m ir nėra kamuolinių lietaus debesų

TAF: EBBR 302320Z 3100/0106 06007KT CAVOK

Orai ataskaitas ir orų prognozės (METAR, TAF).

turimą stotys yra geltonos ir raudonos taškus žemėlapyje.

Perkelti pele per norėdami pamatyti stoties vardą.

Tada spustelėkite, norėdami matyti oro stebėjimo ir prognozės.

Norėdami pakeisti žemėlapį: spustelėkite ant žalios mygtukų su juodo kryžiaus žemyn,; žalią mygtuką su brūkšneliu, jei norite nutolinti; arba žalių rodyklių gretimoms žemėlapius.


METAR-TAF: